Time;durP1;ratioP1;P1;durP2;ratioP2;P2;SDS_P1;SDS_P2;PMS_P1;PMS_P2;Temp;Humidity;BMP_temperature;BMP_pressure;BME280_temperature;BME280_humidity;BME280_pressure;Samples;Min_cycle;Max_cycle;Signal;HPM_P1;HPM_P2
2021/11/17 02:26:40;;;;;;;;;;;;;;;18.78;59.32;101894.06;5059048;28;1906;-37
2021/11/17 02:29:13;;;;;;;;;;;;;;;18.55;60.03;101893.81;5059180;28;1852;-37
2021/11/17 02:31:46;;;;;;;;;;;;;;;19.26;58.31;101892.47;5058113;28;1627;-37
2021/11/17 02:34:19;;;;;;;;;;;;;;;19.29;58.26;101904.78;5057974;28;1759;-37
2021/11/17 02:36:58;;;;;;;;;;;;;;;18.74;59.78;101900.59;5057061;28;1676;-37
2021/11/17 02:39:32;;;;;;;;;;;;;;;18.50;60.32;101912.03;5061143;28;1081;-37
2021/11/17 02:42:15;;;;;;;;;;;;;;;19.26;58.13;101905.88;5062136;28;1940;-37
2021/11/17 02:44:47;;;;;;;;;;;;;;;19.39;58.31;101905.84;5059529;28;1871;-37
2021/11/17 02:47:21;;;;;;;;;;;;;;;18.81;59.00;101910.81;5059249;28;1938;-37
2021/11/17 02:49:53;;;;;;;;;;;;;;;18.60;59.18;101907.78;5062076;28;1740;-37
2021/11/17 02:52:30;;;;;;;;;;;;;;;19.19;58.25;101901.91;5060833;28;1616;-37
2021/11/17 02:55:04;;;;;;;;;;;;;;;19.56;58.14;101911.84;5061320;28;1667;-37
2021/11/17 02:57:38;;;;;;;;;;;;;;;18.78;58.89;101908.34;5061844;28;1758;-37
2021/11/17 03:03:20;;;;;;;;;;;;;;;19.19;57.41;101903.72;5129094;22;2705;-39
2021/11/17 03:05:50;;;;;;;;;;;;;;;19.13;58.91;101896.13;5060790;28;1848;-39
2021/11/17 03:08:44;;;;;;;;;;;;;;;18.65;59.59;101894.91;5098778;28;2272;-39
2021/11/17 03:11:27;;;;;;;;;;;;;;;18.47;60.68;101902.38;5094494;28;2016;-39
2021/11/17 03:14:05;;;;;;;;;;;;;;;18.84;58.71;101890.97;5094399;28;1076;-39
2021/11/17 03:17:08;;;;;;;;;;;;;;;18.66;59.61;101891.28;5107061;28;1608;-39
2021/11/17 03:19:41;;;;;;;;;;;;;;;18.40;61.37;101895.75;5018678;28;1619;-39
2021/11/17 03:22:22;;;;;;;;;;;;;;;18.55;60.80;101892.97;5020928;28;1759;-39
2021/11/17 03:24:56;;;;;;;;;;;;;;;18.89;59.54;101894.19;5075532;28;1937;-39
2021/11/17 03:27:40;;;;;;;;;;;;;;;18.63;60.38;101902.19;5099646;28;1906;-39
2021/11/17 03:30:33;;;;;;;;;;;;;;;18.37;61.55;101898.63;5098213;28;1866;-39
2021/11/17 03:33:18;;;;;;;;;;;;;;;18.53;61.16;101885.03;5086347;28;2595;-39
2021/11/17 03:36:06;;;;;;;;;;;;;;;18.64;61.02;101893.22;5099249;28;1777;-40
2021/11/17 03:38:56;;;;;;;;;;;;;;;18.42;61.41;101891.13;5100358;28;1775;-39
2021/11/17 03:41:33;;;;;;;;;;;;;;;18.35;62.16;101886.31;5094529;28;1445;-39
2021/11/17 03:44:33;;;;;;;;;;;;;;;18.76;60.61;101883.47;5097977;28;1528;-39
2021/11/17 03:47:25;;;;;;;;;;;;;;;18.61;61.93;101881.84;5086814;28;1993;-39
2021/11/17 03:50:00;;;;;;;;;;;;;;;18.33;62.31;101878.38;5103105;28;1761;-39
2021/11/17 03:52:39;;;;;;;;;;;;;;;18.49;61.52;101888.91;5108228;28;1476;-39
2021/11/17 03:55:26;;;;;;;;;;;;;;;18.55;61.67;101887.63;5108699;28;1710;-39
2021/11/17 03:58:02;;;;;;;;;;;;;;;18.37;61.97;101877.19;5014270;28;1836;-39
2021/11/17 04:00:46;;;;;;;;;;;;;;;18.32;61.95;101886.50;5096635;28;1945;-39
2021/11/17 04:03:24;;;;;;;;;;;;;;;18.67;61.28;101860.81;5096999;28;1476;-39
2021/11/17 04:05:57;;;;;;;;;;;;;;;18.58;61.63;101864.16;5105777;28;1409;-39
2021/11/17 04:08:33;;;;;;;;;;;;;;;18.39;62.41;101883.31;5107606;28;1910;-39
2021/11/17 04:11:14;;;;;;;;;;;;;;;18.32;62.30;101875.78;5094688;28;1797;-39
2021/11/17 04:13:47;;;;;;;;;;;;;;;18.71;61.41;101871.34;5093469;28;1177;-39
2021/11/17 04:16:20;;;;;;;;;;;;;;;18.51;62.79;101873.56;5095003;28;1527;-39
2021/11/17 04:18:55;;;;;;;;;;;;;;;18.32;62.45;101883.81;5099275;28;1558;-40
2021/11/17 04:21:28;;;;;;;;;;;;;;;18.48;61.44;101881.81;5103968;28;1551;-39
2021/11/17 04:24:04;;;;;;;;;;;;;;;18.87;61.47;101864.81;5106827;28;1562;-39
2021/11/17 04:26:46;;;;;;;;;;;;;;;18.52;62.08;101882.47;5104463;28;1515;-39
2021/11/17 04:29:24;;;;;;;;;;;;;;;18.25;62.88;101886.91;5102328;28;1492;-39
2021/11/17 04:32:13;;;;;;;;;;;;;;;18.62;61.37;101879.06;5101598;28;1571;-40
2021/11/17 04:34:55;;;;;;;;;;;;;;;18.54;61.74;101892.09;4997221;28;11306;-40
2021/11/17 04:40:36;;;;;;;;;;;;;;;18.18;63.60;101888.28;5073250;28;2970;-39
2021/11/17 04:43:10;;;;;;;;;;;;;;;18.08;63.58;101890.72;5077347;28;991;-39
2021/11/17 04:48:56;;;;;;;;;;;;;;;18.01;63.98;101877.84;5080206;28;2369;-39
2021/11/17 04:51:40;;;;;;;;;;;;;;;18.37;62.49;101885.22;5077730;28;1378;-39
2021/11/17 04:54:20;;;;;;;;;;;;;;;18.40;63.16;101885.03;5087986;28;1507;-39
2021/11/17 04:57:05;;;;;;;;;;;;;;;18.45;63.23;101882.03;5081779;28;1613;-39
2021/11/17 04:59:38;;;;;;;;;;;;;;;18.34;63.08;101879.22;5085625;28;1636;-39
2021/11/17 05:02:22;;;;;;;;;;;;;;;18.55;62.74;101880.44;5078873;28;1814;-39
2021/11/17 05:04:58;;;;;;;;;;;;;;;18.62;62.06;101873.69;5085691;28;1813;-40
2021/11/17 05:07:34;;;;;;;;;;;;;;;18.37;63.55;101882.53;5084739;28;1981;-39
2021/11/17 05:10:06;;;;;;;;;;;;;;;18.22;63.90;101883.56;5077665;28;1116;-39
2021/11/17 05:12:41;;;;;;;;;;;;;;;18.43;63.32;101875.91;5079081;28;1903;-39
2021/11/17 05:15:15;;;;;;;;;;;;;;;18.71;61.82;101882.91;5089536;28;1730;-39
2021/11/17 05:17:48;;;;;;;;;;;;;;;18.37;63.29;101885.22;5079948;28;1521;-39
2021/11/17 05:20:25;;;;;;;;;;;;;;;18.19;63.93;101898.03;5075751;28;1549;-39
2021/11/17 05:23:02;;;;;;;;;;;;;;;18.55;62.41;101899.19;5083439;28;1571;-40
2021/11/17 05:38:50;;;;;;;;;;;;;;;18.35;63.37;101902.38;5115271;27;1244;-37
2021/11/17 05:41:27;;;;;;;;;;;;;;;18.45;63.81;101911.50;5116604;28;2176;-37
2021/11/17 05:43:59;;;;;;;;;;;;;;;18.31;63.73;101914.25;5121968;28;2222;-37
2021/11/17 05:46:32;;;;;;;;;;;;;;;18.35;63.24;101915.75;5125186;28;1909;-37
2021/11/17 05:49:04;;;;;;;;;;;;;;;18.72;62.35;101918.59;5122922;28;1840;-37
2021/11/17 05:51:41;;;;;;;;;;;;;;;18.92;61.66;101907.41;5121810;28;1623;-37
2021/11/17 05:54:18;;;;;;;;;;;;;;;18.96;61.04;101908.91;5119935;28;1636;-37
2021/11/17 05:56:51;;;;;;;;;;;;;;;19.01;61.23;101906.75;5128202;28;1806;-37
2021/11/17 05:59:24;;;;;;;;;;;;;;;19.01;60.94;101897.84;5109268;28;1078;-37
2021/11/17 06:01:59;;;;;;;;;;;;;;;18.49;62.87;101910.31;5114442;28;1914;-37
2021/11/17 06:04:25;;;;;;;;;;;;;;;18.31;63.44;101916.94;5114429;28;1625;-37
2021/11/17 06:06:52;;;;;;;;;;;;;;;18.26;63.59;101891.31;5117816;28;1906;-37
2021/11/17 06:09:19;;;;;;;;;;;;;;;18.69;62.46;101899.09;5124677;28;1774;-37
2021/11/17 06:11:48;;;;;;;;;;;;;;;18.58;62.60;101906.16;5127246;28;1758;-36
2021/11/17 06:14:16;;;;;;;;;;;;;;;18.43;63.50;101916.09;5122747;28;1792;-37
2021/11/17 06:16:44;;;;;;;;;;;;;;;18.60;62.43;101907.78;5121913;28;1775;-37
2021/11/17 06:19:11;;;;;;;;;;;;;;;18.92;62.13;101907.41;5121219;28;1740;-36
2021/11/17 06:21:39;;;;;;;;;;;;;;;19.11;61.76;101900.75;5118338;28;1757;-36
2021/11/17 06:24:06;;;;;;;;;;;;;;;19.30;61.12;101913.69;5123347;28;1757;-36
2021/11/17 06:26:36;;;;;;;;;;;;;;;19.44;60.91;101919.78;5129360;28;1902;-36
2021/11/17 06:29:05;;;;;;;;;;;;;;;19.56;60.59;101919.88;5110594;27;1647;-36
2021/11/17 06:31:33;;;;;;;;;;;;;;;19.61;59.33;101898.91;5113404;28;1888;-37
2021/11/17 06:34:00;;;;;;;;;;;;;;;19.65;59.88;101900.41;5120042;28;1743;-36
2021/11/17 06:36:27;;;;;;;;;;;;;;;19.63;59.34;101891.63;5113778;28;1690;-37
2021/11/17 06:38:55;;;;;;;;;;;;;;;19.62;60.25;101900.66;5104523;27;1764;-36
2021/11/17 06:41:21;;;;;;;;;;;;;;;19.65;59.75;101912.00;5101367;28;1768;-37
2021/11/17 06:43:48;;;;;;;;;;;;;;;19.56;59.98;101895.72;5100019;28;1783;-36
2021/11/17 06:46:16;;;;;;;;;;;;;;;19.61;59.49;101898.91;5107153;28;1957;-36
2021/11/17 06:48:42;;;;;;;;;;;;;;;19.61;59.59;101901.59;5109544;28;1722;-36
2021/11/17 06:51:09;;;;;;;;;;;;;;;19.56;61.11;101893.91;5103895;28;1675;-36
2021/11/17 06:53:35;;;;;;;;;;;;;;;19.74;60.85;101905.16;5103510;28;1737;-36
2021/11/17 06:56:02;;;;;;;;;;;;;;;19.70;60.23;101897.41;5110428;28;1680;-36
2021/11/17 06:58:28;;;;;;;;;;;;;;;19.74;60.92;101885.50;5102815;28;1743;-36
2021/11/17 07:00:55;;;;;;;;;;;;;;;19.73;60.44;101903.41;5102263;28;1633;-36
2021/11/17 07:03:24;;;;;;;;;;;;;;;19.74;60.39;101899.78;5103855;28;1592;-36
2021/11/17 07:05:51;;;;;;;;;;;;;;;19.77;60.10;101894.16;5107656;28;1617;-36
2021/11/17 07:08:17;;;;;;;;;;;;;;;19.77;59.72;101904.91;5105776;28;1946;-37
2021/11/17 07:10:44;;;;;;;;;;;;;;;19.73;59.20;101887.31;5104462;28;1567;-36
2021/11/17 07:13:10;;;;;;;;;;;;;;;19.65;59.48;101906.63;5101428;28;1748;-36
2021/11/17 07:15:38;;;;;;;;;;;;;;;19.25;61.71;101889.88;5106237;28;1750;-36
2021/11/17 07:18:05;;;;;;;;;;;;;;;19.05;60.75;101899.34;5097735;28;1548;-36
2021/11/17 07:20:33;;;;;;;;;;;;;;;19.33;60.17;101878.59;5098964;28;1696;-36
2021/11/17 07:23:00;;;;;;;;;;;;;;;19.33;61.05;101879.47;5100022;28;1655;-37
2021/11/17 07:25:27;;;;;;;;;;;;;;;19.51;60.25;101881.78;5105484;28;1097;-37
2021/11/17 07:27:55;;;;;;;;;;;;;;;19.57;60.00;101875.97;5105400;28;1981;-37
2021/11/17 07:30:24;;;;;;;;;;;;;;;19.25;60.80;101873.78;5096145;28;1806;-37
2021/11/17 07:32:50;;;;;;;;;;;;;;;19.04;61.44;101894.97;5103534;28;1656;-36
2021/11/17 07:35:17;;;;;;;;;;;;;;;19.19;61.38;101893.84;5095471;28;1701;-37
2021/11/17 07:37:45;;;;;;;;;;;;;;;19.18;62.08;101891.28;5092980;28;1911;-36
2021/11/17 07:40:13;;;;;;;;;;;;;;;19.31;61.52;101881.41;5097748;28;1278;-36
2021/11/17 07:42:40;;;;;;;;;;;;;;;19.51;61.10;101881.78;5103368;28;1821;-37
2021/11/17 07:45:08;;;;;;;;;;;;;;;19.54;60.15;101870.84;5103639;28;1733;-36
2021/11/17 07:47:35;;;;;;;;;;;;;;;19.27;60.26;101893.31;5101672;28;1906;-36
2021/11/17 07:50:05;;;;;;;;;;;;;;;19.05;60.36;101884.09;5096962;28;2837;-36
2021/11/17 07:52:32;;;;;;;;;;;;;;;19.38;60.82;101882.69;5098819;28;1584;-36
2021/11/17 07:54:59;;;;;;;;;;;;;;;19.88;59.88;101885.34;5098882;28;1005;-36
2021/11/17 07:57:26;;;;;;;;;;;;;;;20.12;58.12;101889.84;5104991;28;1746;-36
2021/11/17 07:59:52;;;;;;;;;;;;;;;19.84;58.87;101868.59;5101659;28;1648;-36
2021/11/17 08:02:20;;;;;;;;;;;;;;;19.40;58.38;101874.53;5098502;28;1699;-37
2021/11/17 08:04:47;;;;;;;;;;;;;;;19.31;59.51;101876.03;5104006;28;1732;-37
2021/11/17 08:07:18;;;;;;;;;;;;;;;19.57;59.94;101870.59;5098364;28;1902;-36
2021/11/17 08:09:45;;;;;;;;;;;;;;;20.02;59.23;101877.09;5103335;28;2319;-37
2021/11/17 08:12:13;;;;;;;;;;;;;;;20.05;59.26;101876.00;5105584;28;1781;-37
2021/11/17 08:14:40;;;;;;;;;;;;;;;19.59;59.32;101890.13;5106785;28;1701;-37
2021/11/17 08:17:06;;;;;;;;;;;;;;;19.39;59.81;101889.75;5096785;28;1907;-36
2021/11/17 08:19:33;;;;;;;;;;;;;;;19.58;60.53;101875.88;5093631;28;1680;-36
2021/11/17 08:22:06;;;;;;;;;;;;;;;19.83;58.72;101882.13;5099905;28;1752;-37
2021/11/17 08:24:32;;;;;;;;;;;;;;;19.98;59.55;101872.94;5103036;28;1826;-36
2021/11/17 08:26:59;;;;;;;;;;;;;;;19.95;59.41;101886.56;5100987;28;1906;-37
2021/11/17 08:29:27;;;;;;;;;;;;;;;20.04;58.51;101882.38;5098361;28;1623;-37
2021/11/17 08:31:53;;;;;;;;;;;;;;;20.12;58.92;101881.78;5095409;28;1493;-37
2021/11/17 08:34:20;;;;;;;;;;;;;;;20.00;59.87;101878.19;5095898;28;2132;-36
2021/11/17 08:36:46;;;;;;;;;;;;;;;19.96;60.29;101882.09;5103112;28;1791;-37
2021/11/17 08:39:16;;;;;;;;;;;;;;;19.59;61.50;101890.13;5102419;28;2379;-37
2021/11/17 08:41:43;;;;;;;;;;;;;;;19.48;61.01;101891.78;5100431;28;1742;-37
2021/11/17 08:44:09;;;;;;;;;;;;;;;19.65;60.14;101863.69;5088773;28;1350;-37
2021/11/17 08:46:37;;;;;;;;;;;;;;;19.90;60.29;101866.44;5094765;28;1763;-36
2021/11/17 08:49:04;;;;;;;;;;;;;;;20.02;59.51;101849.41;5090850;28;1909;-37
2021/11/17 08:51:31;;;;;;;;;;;;;;;19.94;59.93;101860.72;5098556;28;1857;-36
2021/11/17 08:53:59;;;;;;;;;;;;;;;19.17;55.84;101874.34;5098366;28;1988;-36
2021/11/17 08:56:25;;;;;;;;;;;;;;;19.03;53.99;101878.00;5103307;28;1340;-36
2021/11/17 08:58:52;;;;;;;;;;;;;;;19.09;53.18;101865.97;5101662;28;1658;-37
2021/11/17 09:01:18;;;;;;;;;;;;;;;19.53;57.48;101871.78;5096364;28;1623;-37
2021/11/17 09:03:46;;;;;;;;;;;;;;;19.61;58.03;101877.44;5099840;28;1638;-37
2021/11/17 09:06:15;;;;;;;;;;;;;;;19.84;58.19;101878.47;5096338;28;1947;-36
2021/11/17 09:08:42;;;;;;;;;;;;;;;19.39;59.86;101878.16;5098573;28;1909;-37
2021/11/17 09:11:10;;;;;;;;;;;;;;;19.22;60.57;101869.50;5109031;28;1026;-36
2021/11/17 09:13:37;;;;;;;;;;;;;;;19.39;59.11;101865.59;5101867;28;1865;-36
2021/11/17 09:16:04;;;;;;;;;;;;;;;19.51;59.23;101855.81;5097369;28;1626;-37
2021/11/17 09:18:32;;;;;;;;;;;;;;;19.88;58.91;101863.00;5093496;28;1704;-36
2021/11/17 09:21:00;;;;;;;;;;;;;;;19.46;59.85;101861.50;5094343;28;1767;-36
2021/11/17 09:23:29;;;;;;;;;;;;;;;19.22;59.72;101860.63;5099828;28;1604;-36
2021/11/17 09:25:56;;;;;;;;;;;;;;;19.61;59.50;101850.63;5100599;28;1660;-37
2021/11/17 09:28:22;;;;;;;;;;;;;;;19.76;59.10;101871.00;5096263;28;2083;-37
2021/11/17 09:30:50;;;;;;;;;;;;;;;19.97;57.95;101843.50;5099493;28;1801;-36
2021/11/17 09:33:16;;;;;;;;;;;;;;;19.65;58.33;101855.63;5103345;28;1912;-36
2021/11/17 09:35:44;;;;;;;;;;;;;;;19.47;59.56;101841.75;5095193;28;1586;-36
2021/11/17 09:38:13;;;;;;;;;;;;;;;19.78;58.57;101844.91;5104615;28;1861;-36
2021/11/17 09:40:42;;;;;;;;;;;;;;;19.93;58.22;101818.72;5097962;28;1344;-37
2021/11/17 09:43:09;;;;;;;;;;;;;;;20.22;57.04;101824.56;5094663;28;2238;-36
2021/11/17 09:45:37;;;;;;;;;;;;;;;19.90;56.94;101823.50;5102189;28;1762;-37
2021/11/17 09:48:03;;;;;;;;;;;;;;;19.61;58.38;101839.88;5095295;28;2004;-37
2021/11/17 09:50:33;;;;;;;;;;;;;;;19.86;58.59;101823.69;5102866;28;1701;-36
2021/11/17 09:53:05;;;;;;;;;;;;;;;20.13;57.52;101827.94;5095602;28;1960;-37
2021/11/17 09:55:34;;;;;;;;;;;;;;;19.82;58.57;101832.97;5091286;28;1639;-36
2021/11/17 09:58:03;;;;;;;;;;;;;;;19.51;59.67;101817.41;5091182;28;1635;-37
2021/11/17 10:00:40;;;;;;;;;;;;;;;19.89;57.81;101813.72;5094924;28;1757;-37
2021/11/17 10:03:09;;;;;;;;;;;;;;;20.27;56.62;101818.81;5103351;28;1596;-36
2021/11/17 10:06:14;;;;;;;;;;;;;;;20.05;57.39;101793.66;5097921;28;1956;-36
2021/11/17 10:09:13;;;;;;;;;;;;;;;19.66;57.56;101789.44;5092735;28;1905;-36
2021/11/17 10:11:59;;;;;;;;;;;;;;;19.89;57.39;101786.88;5104700;28;1640;-37
2021/11/17 10:14:28;;;;;;;;;;;;;;;19.93;57.56;101799.94;5100907;28;1071;-36
2021/11/17 10:16:55;;;;;;;;;;;;;;;20.24;56.55;101787.69;5105148;28;1805;-37
2021/11/17 10:19:23;;;;;;;;;;;;;;;19.63;58.90;101777.06;5100688;28;1748;-37
2021/11/17 10:21:56;;;;;;;;;;;;;;;19.35;59.41;101764.88;5096932;28;1428;-36
2021/11/17 10:24:23;;;;;;;;;;;;;;;19.78;57.80;101772.44;5102843;28;1653;-36
2021/11/17 10:26:52;;;;;;;;;;;;;;;20.09;57.46;101764.69;5105875;28;1957;-37
2021/11/17 10:29:27;;;;;;;;;;;;;;;20.11;57.85;101751.16;5095175;28;1989;-37
2021/11/17 10:31:55;;;;;;;;;;;;;;;19.56;59.18;101765.13;5091344;28;1419;-36
2021/11/17 10:34:24;;;;;;;;;;;;;;;19.32;59.64;101764.22;5101805;28;1675;-36
2021/11/17 10:36:53;;;;;;;;;;;;;;;19.82;59.04;101746.22;5103964;28;1754;-37
2021/11/17 10:39:21;;;;;;;;;;;;;;;20.11;57.76;101745.78;5104670;28;2020;-37
2021/11/17 10:41:56;;;;;;;;;;;;;;;20.14;57.68;101745.56;5098129;28;1894;-37
2021/11/17 10:44:32;;;;;;;;;;;;;;;19.70;58.57;101737.25;5100020;28;1467;-37
2021/11/17 10:47:00;;;;;;;;;;;;;;;19.63;58.18;101736.81;5100554;28;1724;-37
2021/11/17 10:49:28;;;;;;;;;;;;;;;19.98;57.19;101732.47;5095363;28;2402;-37
2021/11/17 10:51:57;;;;;;;;;;;;;;;20.25;56.84;101733.03;5096489;28;2133;-37
2021/11/17 10:54:25;;;;;;;;;;;;;;;20.40;55.92;101751.59;5099294;28;1968;-37
2021/11/17 10:57:00;;;;;;;;;;;;;;;19.81;57.38;101739.97;5098513;28;1857;-37
2021/11/17 10:59:26;;;;;;;;;;;;;;;19.66;59.24;101730.41;5096959;28;1718;-37
2021/11/17 11:01:53;;;;;;;;;;;;;;;20.08;57.28;101735.31;5092335;28;1485;-36
2021/11/17 11:04:22;;;;;;;;;;;;;;;20.31;57.17;101718.22;5096108;28;1887;-37
2021/11/17 11:06:50;;;;;;;;;;;;;;;19.81;58.57;101720.34;5095572;28;1841;-37
2021/11/17 11:09:20;;;;;;;;;;;;;;;19.45;59.26;101722.97;5099270;27;1983;-37
2021/11/17 11:11:48;;;;;;;;;;;;;;;19.82;58.95;101725.59;5103928;28;1858;-37
2021/11/17 11:14:18;;;;;;;;;;;;;;;20.14;57.37;101724.09;5094752;28;1087;-37
2021/11/17 11:16:46;;;;;;;;;;;;;;;20.12;57.07;101734.09;5097812;28;2061;-37
2021/11/17 11:19:26;;;;;;;;;;;;;;;19.64;57.56;101697.47;5095522;28;2137;-37
2021/11/17 11:22:04;;;;;;;;;;;;;;;19.75;57.77;101712.75;5094387;28;1730;-37
2021/11/17 11:24:32;;;;;;;;;;;;;;;20.14;57.05;101697.22;5103928;28;1835;-37
2021/11/17 11:27:22;;;;;;;;;;;;;;;20.31;57.47;101698.56;5101664;28;1699;-37
2021/11/17 11:29:51;;;;;;;;;;;;;;;19.68;57.18;101704.31;5075499;28;2059;-37
2021/11/17 11:32:36;;;;;;;;;;;;;;;19.61;57.99;101700.38;5102002;28;1684;-37
2021/11/17 11:35:16;;;;;;;;;;;;;;;19.55;59.06;101698.16;5103483;28;1959;-37
2021/11/17 11:38:03;;;;;;;;;;;;;;;19.41;59.04;101713.44;5095429;28;1833;-37
2021/11/17 11:40:45;;;;;;;;;;;;;;;19.05;56.85;101704.50;5101079;28;1652;-37
2021/11/17 11:43:20;;;;;;;;;;;;;;;18.87;58.72;101701.34;5079201;28;1732;-37
2021/11/17 11:45:49;;;;;;;;;;;;;;;18.83;58.90;101702.53;5100262;28;1517;-37
2021/11/17 11:48:34;;;;;;;;;;;;;;;18.80;59.54;101699.22;5104672;28;2034;-36
2021/11/17 11:51:05;;;;;;;;;;;;;;;18.82;58.78;101698.16;5100618;28;1721;-37
2021/11/17 11:53:55;;;;;;;;;;;;;;;18.76;59.63;101682.50;5099285;28;1743;-36
2021/11/17 11:56:27;;;;;;;;;;;;;;;18.72;59.70;101691.72;5088888;28;2078;-37
2021/11/17 11:59:01;;;;;;;;;;;;;;;18.67;59.48;101675.09;5097729;28;1703;-37
2021/11/17 12:01:28;;;;;;;;;;;;;;;18.66;59.67;101668.91;5096686;28;1868;-37
2021/11/17 12:03:58;;;;;;;;;;;;;;;18.64;59.67;101678.00;5098691;28;1897;-37
2021/11/17 12:06:29;;;;;;;;;;;;;;;18.62;59.30;101670.09;5099954;28;1683;-37
2021/11/17 12:09:00;;;;;;;;;;;;;;;18.59;59.48;101672.97;5099582;28;1905;-36
2021/11/17 12:11:29;;;;;;;;;;;;;;;18.57;59.15;101671.38;5106320;28;1098;-36
2021/11/17 12:14:01;;;;;;;;;;;;;;;18.52;59.51;101662.81;5102973;28;1957;-37
2021/11/17 12:16:30;;;;;;;;;;;;;;;18.51;59.03;101677.19;5100932;28;1737;-37
2021/11/17 12:18:58;;;;;;;;;;;;;;;18.45;59.53;101670.44;5099349;28;1770;-37
2021/11/17 12:21:25;;;;;;;;;;;;;;;18.45;59.86;101681.16;5098335;28;1914;-37
2021/11/17 12:24:03;;;;;;;;;;;;;;;18.40;59.37;101672.59;5096268;28;1844;-37
2021/11/17 12:26:30;;;;;;;;;;;;;;;18.39;59.74;101677.09;5102534;28;1089;-37
2021/11/17 12:29:00;;;;;;;;;;;;;;;18.36;59.74;101669.25;5096959;28;2007;-37
2021/11/17 12:31:29;;;;;;;;;;;;;;;18.38;59.80;101671.84;5103234;28;1842;-37
2021/11/17 12:33:59;;;;;;;;;;;;;;;18.35;59.87;101662.22;5094260;28;1928;-37
2021/11/17 12:36:26;;;;;;;;;;;;;;;18.36;59.63;101673.78;5101067;28;1790;-37
2021/11/17 12:38:53;;;;;;;;;;;;;;;18.27;59.38;101657.41;5102712;28;1742;-37
2021/11/17 12:41:23;;;;;;;;;;;;;;;18.31;59.54;101665.22;5109492;28;1038;-37
2021/11/17 12:43:57;;;;;;;;;;;;;;;18.29;59.87;101665.34;5095702;28;1663;-37
2021/11/17 12:46:25;;;;;;;;;;;;;;;18.28;59.94;101667.16;5097147;28;1689;-37
2021/11/17 12:48:54;;;;;;;;;;;;;;;18.23;59.65;101658.59;5102263;28;1981;-37
2021/11/17 12:51:24;;;;;;;;;;;;;;;18.21;59.54;101659.66;5101914;28;1929;-37
2021/11/17 12:53:52;;;;;;;;;;;;;;;18.17;59.92;101656.34;5101648;28;1740;-37
2021/11/17 12:56:21;;;;;;;;;;;;;;;18.15;60.09;101657.44;5104822;28;1067;-37
2021/11/17 12:58:50;;;;;;;;;;;;;;;18.09;59.18;101656.88;5102307;28;1629;-37
2021/11/17 13:01:23;;;;;;;;;;;;;;;18.00;55.17;101648.63;5107381;28;1750;-37
2021/11/17 13:03:58;;;;;;;;;;;;;;;17.97;53.21;101651.53;5100229;28;1623;-37
2021/11/17 13:06:28;;;;;;;;;;;;;;;17.98;54.68;101653.25;5099134;28;1426;-38
2021/11/17 13:09:11;;;;;;;;;;;;;;;17.93;56.14;101642.03;5100295;28;1906;-37
2021/11/17 13:11:48;;;;;;;;;;;;;;;17.83;56.58;101656.03;5095545;28;1439;-37
2021/11/17 13:14:18;;;;;;;;;;;;;;;17.80;57.63;101650.84;5099514;28;1401;-38
2021/11/17 13:16:46;;;;;;;;;;;;;;;17.84;57.71;101639.00;5095235;28;1926;-38
2021/11/17 13:19:19;;;;;;;;;;;;;;;17.99;58.03;101639.75;5100234;28;1714;-38
2021/11/17 13:21:53;;;;;;;;;;;;;;;18.15;58.03;101641.38;5100002;28;1805;-38
2021/11/17 13:24:43;;;;;;;;;;;;;;;17.98;57.82;101648.72;5092415;28;2219;-38
2021/11/17 13:27:24;;;;;;;;;;;;;;;18.07;58.08;101655.28;5081442;28;2597;-38
2021/11/17 13:29:52;;;;;;;;;;;;;;;18.19;58.30;101646.38;5091553;28;1977;-38
2021/11/17 13:32:21;;;;;;;;;;;;;;;18.65;58.48;101640.38;5093634;28;1618;-38
2021/11/17 13:34:48;;;;;;;;;;;;;;;18.12;58.58;101634.38;5104353;28;1803;-38
2021/11/17 13:37:24;;;;;;;;;;;;;;;17.95;59.24;101650.78;5094701;28;1496;-38
2021/11/17 13:39:55;;;;;;;;;;;;;;;17.98;59.18;101642.53;5091489;28;1077;-38
2021/11/17 13:42:22;;;;;;;;;;;;;;;17.91;59.46;101649.28;5101314;28;1666;-38
2021/11/17 13:44:49;;;;;;;;;;;;;;;17.95;59.83;101645.44;5091676;28;1610;-38
2021/11/17 13:47:16;;;;;;;;;;;;;;;17.89;58.90;101658.28;5098508;28;1783;-38
2021/11/17 13:49:44;;;;;;;;;;;;;;;17.59;59.85;101647.84;5097202;28;1972;-38
2021/11/17 13:52:12;;;;;;;;;;;;;;;17.63;59.20;101643.16;5107462;28;1580;-38
2021/11/17 13:54:40;;;;;;;;;;;;;;;17.64;59.29;101640.34;5102244;28;1827;-38
2021/11/17 13:57:07;;;;;;;;;;;;;;;17.27;60.16;101645.53;5103550;28;1890;-38
2021/11/17 13:59:34;;;;;;;;;;;;;;;17.60;59.93;101646.00;5100579;28;1856;-38
2021/11/17 14:02:01;;;;;;;;;;;;;;;17.80;58.67;101637.47;5100925;28;1854;-39
2021/11/17 14:04:28;;;;;;;;;;;;;;;17.84;59.41;101647.03;5107687;28;1101;-38
2021/11/17 14:06:56;;;;;;;;;;;;;;;17.89;59.60;101642.22;5107421;28;1649;-38
2021/11/17 14:09:22;;;;;;;;;;;;;;;18.91;56.93;101632.28;5099523;28;1910;-38
2021/11/17 14:11:50;;;;;;;;;;;;;;;18.77;57.66;101645.81;5108283;28;1716;-38
2021/11/17 14:14:17;;;;;;;;;;;;;;;18.36;58.75;101636.28;5097454;28;1619;-38
2021/11/17 14:16:44;;;;;;;;;;;;;;;18.82;58.51;101639.19;5095094;28;1839;-38
2021/11/17 14:19:10;;;;;;;;;;;;;;;18.87;58.31;101642.38;5094866;28;1665;-38
2021/11/17 14:21:37;;;;;;;;;;;;;;;18.72;58.44;101646.19;5095824;28;1739;-38
2021/11/17 14:24:05;;;;;;;;;;;;;;;18.98;58.00;101643.41;5101741;28;1787;-38
2021/11/17 14:26:33;;;;;;;;;;;;;;;18.62;62.38;101645.09;5098808;28;1493;-38
2021/11/17 14:29:02;;;;;;;;;;;;;;;18.65;60.71;101640.38;5096106;28;1906;-38
2021/11/17 14:31:30;;;;;;;;;;;;;;;18.92;60.02;101659.94;5096834;28;2231;-38
2021/11/17 14:33:59;;;;;;;;;;;;;;;18.67;60.21;101649.16;5099395;28;1724;-38
2021/11/17 14:36:26;;;;;;;;;;;;;;;18.82;59.81;101649.03;5095574;28;1728;-38
2021/11/17 14:38:53;;;;;;;;;;;;;;;18.74;60.60;101619.25;5101258;28;1729;-37
2021/11/17 14:41:20;;;;;;;;;;;;;;;18.78;61.71;101650.19;5095789;28;1688;-38
2021/11/17 14:43:46;;;;;;;;;;;;;;;18.73;60.93;101650.53;5098079;28;1888;-38
2021/11/17 14:46:15;;;;;;;;;;;;;;;18.84;61.22;101641.75;5101048;28;1872;-37
2021/11/17 14:48:42;;;;;;;;;;;;;;;18.88;62.28;101648.63;5097111;28;1788;-37
2021/11/17 14:51:08;;;;;;;;;;;;;;;18.84;61.98;101641.75;5098103;28;1925;-38
2021/11/17 14:53:34;;;;;;;;;;;;;;;18.78;62.35;101637.69;5100433;28;1641;-38
2021/11/17 14:56:01;;;;;;;;;;;;;;;18.85;62.68;101630.91;5104494;28;1618;-37
2021/11/17 14:58:27;;;;;;;;;;;;;;;18.86;64.52;101637.13;5096068;28;1724;-38
2021/11/17 15:00:55;;;;;;;;;;;;;;;18.98;64.60;101632.69;5095145;28;1680;-38
2021/11/17 15:03:23;;;;;;;;;;;;;;;18.95;63.31;101632.94;5098124;28;1687;-37
2021/11/17 15:05:50;;;;;;;;;;;;;;;19.07;63.93;101638.22;5099211;28;1676;-38
2021/11/17 15:08:17;;;;;;;;;;;;;;;19.09;64.09;101648.81;5101135;28;1856;-37
2021/11/17 15:10:44;;;;;;;;;;;;;;;19.11;65.36;101648.72;5100204;28;1930;-38
2021/11/17 15:13:11;;;;;;;;;;;;;;;19.00;64.63;101639.66;5098734;28;1653;-37
2021/11/17 15:15:39;;;;;;;;;;;;;;;19.05;65.70;101640.16;5101448;28;1651;-38
2021/11/17 15:18:06;;;;;;;;;;;;;;;19.13;64.90;101653.00;5099835;28;1915;-37
2021/11/17 15:20:34;;;;;;;;;;;;;;;19.17;65.03;101646.44;5099842;28;1748;-37
2021/11/17 15:23:01;;;;;;;;;;;;;;;19.27;64.86;101646.59;5104972;28;1671;-37
2021/11/17 15:25:31;;;;;;;;;;;;;;;19.20;65.86;101637.28;5098002;28;1890;-37
2021/11/17 15:28:00;;;;;;;;;;;;;;;18.95;67.52;101633.78;5106238;28;1708;-37
2021/11/17 15:30:28;;;;;;;;;;;;;;;19.00;66.91;101636.09;5099554;28;1917;-37
2021/11/17 15:32:55;;;;;;;;;;;;;;;19.08;66.42;101647.97;5104028;28;1842;-37
2021/11/17 15:35:23;;;;;;;;;;;;;;;18.80;66.33;101645.63;5098640;28;1697;-47
2021/11/17 15:37:51;;;;;;;;;;;;;;;18.61;67.99;101657.66;5099083;28;1636;-47
2021/11/17 15:40:19;;;;;;;;;;;;;;;18.52;68.08;101660.97;5101686;28;1545;-47
2021/11/17 15:42:46;;;;;;;;;;;;;;;18.46;69.14;101659.63;5097239;28;1791;-48
2021/11/17 15:45:13;;;;;;;;;;;;;;;18.43;69.10;101649.13;5102034;28;1599;-47
2021/11/17 15:47:39;;;;;;;;;;;;;;;18.45;69.84;101657.91;5098270;28;1706;-47
2021/11/17 15:50:07;;;;;;;;;;;;;;;18.54;69.68;101655.53;5094770;28;1973;-47
2021/11/17 15:52:33;;;;;;;;;;;;;;;18.56;69.96;101662.50;5096562;28;1717;-48
2021/11/17 15:55:01;;;;;;;;;;;;;;;18.39;69.84;101660.19;5100642;28;1007;-47
2021/11/17 15:57:27;;;;;;;;;;;;;;;18.52;70.25;101662.81;5104547;28;1729;-48